createdAt,value
2023-05-18T04:20:35.022Z,100356.03
2023-05-18T04:24:38.603Z,100359.37
2023-05-18T04:28:43.404Z,100371.84
2023-05-18T04:32:46.621Z,100376.66
2023-05-18T04:36:49.389Z,100381.59
2023-05-18T04:40:52.575Z,100389.25
2023-05-18T04:44:55.369Z,100385.59
2023-05-18T04:48:59.009Z,100385.59
2023-05-18T04:53:02.658Z,100388.41
2023-05-18T04:57:06.310Z,100394.56
2023-05-18T05:01:09.295Z,100390.91
2023-05-18T05:05:12.566Z,100390.44
2023-05-18T05:09:15.716Z,100400.19
2023-05-18T05:13:19.941Z,100401.50
2023-05-18T05:17:23.955Z,100401.22
2023-05-18T05:21:27.198Z,100408.16
2023-05-18T05:25:30.150Z,100399.53
2023-05-18T05:29:33.396Z,100410.94
2023-05-18T05:33:36.271Z,100410.66
2023-05-18T05:37:39.464Z,100404.38
2023-05-18T05:41:43.501Z,100416.25
2023-05-18T05:45:47.434Z,100422.06
2023-05-18T05:49:50.340Z,100421.88
2023-05-18T05:53:53.540Z,100427.34
2023-05-18T05:58:10.126Z,100427.69
2023-05-18T06:02:19.132Z,100432.63
2023-05-18T06:06:22.708Z,100431.50
2023-05-18T06:10:26.231Z,100431.88
2023-05-18T06:14:30.000Z,100442.25
2023-05-18T06:18:34.266Z,100437.63
2023-05-18T06:22:40.272Z,100441.91
2023-05-18T06:26:45.394Z,100455.81
2023-05-18T06:30:49.553Z,100454.37
2023-05-18T06:34:53.624Z,100457.97
2023-05-18T06:38:58.140Z,100463.44
2023-05-18T06:43:01.372Z,100460.78
2023-05-18T06:47:07.142Z,100464.13
2023-05-18T06:51:10.942Z,100469.91
2023-05-18T06:55:15.575Z,100478.91
2023-05-18T06:59:18.766Z,100471.78
2023-05-18T07:03:22.169Z,100471.09
2023-05-18T07:07:24.965Z,100475.72
2023-05-18T07:11:29.623Z,100479.88
2023-05-18T07:15:33.932Z,100484.03
2023-05-18T07:19:38.805Z,100489.00
2023-05-18T07:23:41.457Z,100495.31
2023-05-18T07:27:45.104Z,100496.62
2023-05-18T07:31:48.332Z,100500.25
2023-05-18T07:35:51.474Z,100503.53
2023-05-18T07:40:00.994Z,100508.72
2023-05-18T07:44:11.851Z,100506.75
2023-05-18T07:48:16.193Z,100505.41
2023-05-18T07:52:29.831Z,100500.91
2023-05-18T07:56:34.091Z,100508.41
2023-05-18T08:00:41.105Z,100510.22
2023-05-18T08:04:58.592Z,100512.19
2023-05-18T08:09:02.979Z,100518.16
2023-05-18T08:13:15.972Z,100512.06
2023-05-18T08:17:21.333Z,100515.69
2023-05-18T08:21:24.387Z,100519.50
2023-05-18T08:25:27.190Z,100521.19
2023-05-18T08:29:30.511Z,100523.50
2023-05-18T08:33:33.663Z,100525.81
2023-05-18T08:37:37.395Z,100526.50
2023-05-18T08:42:08.121Z,100522.78
2023-05-18T08:46:18.742Z,100528.78
2023-05-18T08:50:30.084Z,100532.66
2023-05-18T08:54:37.129Z,100536.06
2023-05-18T08:58:48.976Z,100537.75
2023-05-18T09:02:52.534Z,100532.25
2023-05-18T09:06:56.645Z,100540.47
2023-05-18T09:11:02.738Z,100538.13
2023-05-18T09:15:06.778Z,100538.56
2023-05-18T09:19:14.164Z,100537.25
2023-05-18T09:23:27.812Z,100535.84
2023-05-18T09:27:40.010Z,100540.44
2023-05-18T09:31:44.091Z,100535.25
2023-05-18T09:35:48.367Z,100546.34
2023-05-18T09:40:03.254Z,100548.75
2023-05-18T09:44:32.329Z,100541.97
2023-05-18T09:48:53.233Z,100542.56
2023-05-18T09:52:57.715Z,100544.47
2023-05-18T09:57:10.146Z,100551.75
2023-05-18T10:01:14.306Z,100552.00
2023-05-18T10:05:21.396Z,100555.06
2023-05-18T10:09:26.138Z,100560.69
2023-05-18T10:13:32.941Z,100551.47
2023-05-18T10:17:40.599Z,100547.28
2023-05-18T10:21:49.205Z,100559.88
2023-05-18T10:25:54.779Z,100553.84
2023-05-18T10:30:00.783Z,100552.22
2023-05-18T10:34:06.087Z,100557.94
2023-05-18T10:38:30.935Z,100561.50
2023-05-18T10:42:49.163Z,100558.84
2023-05-18T10:47:08.986Z,100564.78
2023-05-18T10:51:15.320Z,100559.44
2023-05-18T10:55:19.156Z,100572.72
2023-05-18T10:59:23.561Z,100564.69
2023-05-18T11:03:28.842Z,100565.28
2023-05-18T11:08:02.146Z,100557.06
2023-05-18T11:12:18.998Z,100566.31
2023-05-18T11:16:32.804Z,100561.03
2023-05-18T11:20:38.071Z,100562.69
2023-05-18T11:24:43.465Z,100570.28
2023-05-18T11:29:01.929Z,100570.38
2023-05-18T11:33:48.393Z,100575.28
2023-05-18T11:38:22.400Z,100568.81
2023-05-18T11:42:35.561Z,100573.63
2023-05-18T11:46:58.878Z,100584.88
2023-05-18T11:51:04.580Z,100585.63
2023-05-18T11:55:09.049Z,100583.72
2023-05-18T11:59:55.547Z,100583.16
2023-05-18T12:04:23.270Z,100582.19
2023-05-18T12:08:47.176Z,100581.72
2023-05-18T12:13:13.342Z,100588.03
2023-05-18T12:17:48.834Z,100587.09
2023-05-18T12:22:03.114Z,100594.91
2023-05-18T12:26:11.919Z,100589.69
2023-05-18T12:30:20.899Z,100596.84
2023-05-18T12:34:29.623Z,100597.16
2023-05-18T12:38:33.379Z,100594.28
2023-05-18T12:43:01.234Z,100589.87
2023-05-18T12:47:26.162Z,100590.59
2023-05-18T12:51:36.350Z,100586.13
2023-05-18T12:55:39.606Z,100589.56
2023-05-18T12:59:51.843Z,100589.87
2023-05-18T13:03:59.051Z,100588.69
2023-05-18T13:08:02.219Z,100588.59
2023-05-18T13:12:07.575Z,100600.38
2023-05-18T13:16:17.511Z,100598.47
2023-05-18T13:20:20.811Z,100595.31
2023-05-18T13:24:23.990Z,100591.69
2023-05-18T13:28:27.215Z,100596.87
2023-05-18T13:32:30.424Z,100597.75
2023-05-18T13:36:35.919Z,100598.62
2023-05-18T13:40:40.042Z,100598.16
2023-05-18T13:44:42.788Z,100602.56
2023-05-18T13:48:46.334Z,100602.50
2023-05-18T13:52:49.549Z,100596.59
2023-05-18T13:56:52.727Z,100601.56
2023-05-18T14:00:55.567Z,100600.88
2023-05-18T14:04:59.069Z,100606.56
2023-05-18T14:09:01.809Z,100612.59
2023-05-18T14:13:04.970Z,100612.75
2023-05-18T14:17:09.903Z,100616.94
2023-05-18T14:21:14.247Z,100619.81
2023-05-18T14:25:17.252Z,100625.66
2023-05-18T14:29:20.719Z,100624.63
2023-05-18T14:33:23.469Z,100625.88
2023-05-18T14:37:26.596Z,100623.91
2023-05-18T14:41:29.352Z,100621.84
2023-05-18T14:45:32.439Z,100625.88
2023-05-18T14:49:35.138Z,100626.16
2023-05-18T14:53:38.200Z,100627.81
2023-05-18T14:57:41.188Z,100632.78
